CheckWX is a tool to help pilots better visualize weather data.  It is not intended as a substitute for an official pre-flight weather briefing.

06:44:48 UTC

CYWJ METAR
Déline Airport
Déline, Canada
Current

15 hours ago

CYWJ 201600Z 20004KT 180V240 50SM FEW110 FEW220 08/01 A2995 RMK AC2CI1 CI TR HZ DIST E WX CALL OUT SLP155
Observed
May-20 @ 16:00 UTC
Wind
  • 200° at 4 KTS
Visibility
50 SM
Flight Rules
VFR
Cloud Levels
  • Few at 11,000' AGL
  • Few at 22,000' AGL
Temperature
C / 46°F
Dewpoint
C / 34°F
Humidity
62%
Altimeter
29.95" Hg
Pressure
1014.22 hPa
Previous

16 hours ago

CYWJ 201500Z 23003KT 190V270 50SM FEW110 FEW220 07/01 A2994 RMK AC2CI1 CI TR WX CALL OUT HZ DIST E SLP152
Observed
May-20 @ 15:00 UTC
Wind
  • 230° at 3 KTS
Visibility
50 SM
Flight Rules
VFR
Cloud Levels
  • Few at 11,000' AGL
  • Few at 22,000' AGL
Temperature
C / 45°F
Dewpoint
C / 34°F
Humidity
66%
Altimeter
29.94" Hg
Pressure
1013.92 hPa
Previous

16 hours ago

CYWJ 201445Z 23004KT 180V290 50SM FEW110 FEW220 07/01 A2994 RMK AC2CI1 CI TR HZ DIST E WX CALL OUT SLP151
Observed
May-20 @ 14:45 UTC
Wind
  • 230° at 4 KTS
Visibility
50 SM
Flight Rules
VFR
Cloud Levels
  • Few at 11,000' AGL
  • Few at 22,000' AGL
Temperature
C / 45°F
Dewpoint
C / 34°F
Humidity
66%
Altimeter
29.94" Hg
Pressure
1013.92 hPa